Time;durP1;ratioP1;P1;durP2;ratioP2;P2;SDS_P1;SDS_P2;PMS_P1;PMS_P2;Temp;Humidity;BMP_temperature;BMP_pressure;BME280_temperature;BME280_humidity;BME280_pressure;Samples;Min_cycle;Max_cycle;Signal;HPM_P1;HPM_P2
2021/05/19 00:01:46;;;;;;;;;;;;;;;6.75;89.52;95667.25;3600152;39;19936;-55
2021/05/19 00:04:14;;;;;;;;;;;;;;;6.70;88.71;95661.94;3603171;39;20453;-55
2021/05/19 00:06:41;;;;;;;;;;;;;;;6.69;88.92;95662.97;3600951;39;20523;-55
2021/05/19 00:09:12;;;;;;;;;;;;;;;6.71;89.38;95663.50;3584149;39;20182;-55
2021/05/19 00:11:40;;;;;;;;;;;;;;;6.70;88.84;95661.13;3592073;39;19936;-55
2021/05/19 00:14:09;;;;;;;;;;;;;;;6.70;88.47;95669.81;3603584;39;19953;-55
2021/05/19 00:16:36;;;;;;;;;;;;;;;6.69;87.09;95667.41;3601400;39;19961;-54
2021/05/19 00:19:04;;;;;;;;;;;;;;;6.66;88.26;95668.69;3600343;39;19940;-55
2021/05/19 00:21:32;;;;;;;;;;;;;;;6.65;88.16;95661.84;3601822;39;20636;-55
2021/05/19 00:23:59;;;;;;;;;;;;;;;6.70;88.51;95658.50;3592832;39;19990;-55
2021/05/19 00:26:27;;;;;;;;;;;;;;;6.70;88.80;95661.94;3600840;39;20050;-55
2021/05/19 00:28:55;;;;;;;;;;;;;;;6.76;88.24;95654.94;3601761;39;19935;-53
2021/05/19 00:31:24;;;;;;;;;;;;;;;6.83;88.40;95657.41;3592941;39;19961;-53
2021/05/19 00:33:52;;;;;;;;;;;;;;;6.85;88.64;95669.25;3588726;39;19940;-53
2021/05/19 00:36:19;;;;;;;;;;;;;;;6.88;88.33;95670.59;3593334;39;19970;-53
2021/05/19 00:38:47;;;;;;;;;;;;;;;6.93;89.04;95679.34;3600531;39;19936;-53
2021/05/19 00:41:15;;;;;;;;;;;;;;;6.94;88.90;95693.25;3592429;39;19950;-56
2021/05/19 00:43:42;;;;;;;;;;;;;;;6.95;88.57;95683.56;3598632;39;20208;-53
2021/05/19 00:46:09;;;;;;;;;;;;;;;6.93;88.41;95668.84;3592983;39;20279;-54
2021/05/19 00:48:38;;;;;;;;;;;;;;;6.93;89.10;95678.56;3604118;39;19936;-54
2021/05/19 00:51:06;;;;;;;;;;;;;;;6.93;88.75;95686.44;3592899;39;19940;-54
2021/05/19 00:53:35;;;;;;;;;;;;;;;6.92;86.83;95675.13;3598250;39;19950;-53
2021/05/19 00:56:03;;;;;;;;;;;;;;;6.84;86.49;95677.34;3602202;39;19950;-53
2021/05/19 00:58:33;;;;;;;;;;;;;;;6.79;87.79;95685.13;3583742;39;19944;-53
2021/05/19 01:01:00;;;;;;;;;;;;;;;6.76;87.57;95689.81;3588228;39;20600;-54
2021/05/19 01:03:40;;;;;;;;;;;;;;;6.72;87.50;95677.41;3590141;39;19949;-54
2021/05/19 01:06:23;;;;;;;;;;;;;;;6.73;88.24;95682.41;3597651;39;19950;-54
2021/05/19 01:11:38;;;;;;;;;;;;;;;6.71;86.89;95650.41;3591731;39;20460;-55
2021/05/19 01:14:07;;;;;;;;;;;;;;;6.83;87.20;95644.31;3595312;39;19966;-54
2021/05/19 01:16:35;;;;;;;;;;;;;;;6.81;87.58;95641.91;3593200;39;19994;-54
2021/05/19 01:19:03;;;;;;;;;;;;;;;6.77;88.39;95653.91;3601686;39;20378;-54
2021/05/19 01:21:31;;;;;;;;;;;;;;;6.74;88.23;95651.78;3592300;39;19936;-54
2021/05/19 01:23:59;;;;;;;;;;;;;;;6.70;88.84;95638.34;3595087;39;20541;-54
2021/05/19 01:26:26;;;;;;;;;;;;;;;6.69;88.48;95642.00;3589419;39;19936;-54
2021/05/19 01:28:54;;;;;;;;;;;;;;;6.70;87.77;95640.16;3591731;39;19936;-54
2021/05/19 01:31:21;;;;;;;;;;;;;;;6.71;88.29;95641.75;3593305;39;20352;-54
2021/05/19 01:33:49;;;;;;;;;;;;;;;6.67;88.01;95638.00;3591341;39;19977;-54
2021/05/19 01:36:18;;;;;;;;;;;;;;;6.66;87.88;95639.03;3593996;39;19936;-54
2021/05/19 01:38:45;;;;;;;;;;;;;;;6.66;87.12;95636.41;3595003;39;20269;-54
2021/05/19 01:41:13;;;;;;;;;;;;;;;6.66;86.96;95634.59;3591512;39;19950;-55
2021/05/19 01:43:44;;;;;;;;;;;;;;;6.62;85.92;95641.34;3591921;39;19950;-54
2021/05/19 01:46:29;;;;;;;;;;;;;;;6.57;87.19;95647.28;3600179;39;20306;-54
2021/05/19 01:48:58;;;;;;;;;;;;;;;6.55;85.49;95651.19;3583307;39;20171;-54
2021/05/19 01:51:25;;;;;;;;;;;;;;;6.54;86.19;95655.63;3593809;39;20407;-54
2021/05/19 01:53:53;;;;;;;;;;;;;;;6.50;86.89;95658.94;3585949;39;19940;-54
2021/05/19 01:56:21;;;;;;;;;;;;;;;6.45;87.52;95655.25;3593624;39;20205;-55
2021/05/19 01:58:52;;;;;;;;;;;;;;;6.52;87.26;95651.66;3593847;39;20027;-54
2021/05/19 02:01:20;;;;;;;;;;;;;;;6.57;87.13;95654.38;3595686;39;19951;-54
2021/05/19 02:03:51;;;;;;;;;;;;;;;6.62;87.61;95667.56;3602508;39;20264;-55
2021/05/19 02:06:19;;;;;;;;;;;;;;;6.66;87.25;95662.63;3593262;39;19942;-59
2021/05/19 02:08:49;;;;;;;;;;;;;;;6.65;87.43;95659.22;3605625;39;19946;-54
2021/05/19 02:11:19;;;;;;;;;;;;;;;6.65;87.56;95668.91;3591845;39;19971;-54
2021/05/19 02:13:47;;;;;;;;;;;;;;;6.65;86.97;95677.56;3605258;39;19943;-54
2021/05/19 02:16:15;;;;;;;;;;;;;;;6.67;87.14;95686.00;3592856;39;19950;-54
2021/05/19 02:18:47;;;;;;;;;;;;;;;6.69;88.12;95677.88;3594238;39;20571;-55
2021/05/19 02:21:19;;;;;;;;;;;;;;;6.71;87.46;95670.59;3584725;39;19947;-54
2021/05/19 02:24:10;;;;;;;;;;;;;;;6.70;87.77;95672.44;3603665;39;19932;-54
2021/05/19 02:26:38;;;;;;;;;;;;;;;6.66;88.11;95673.91;3604071;39;19950;-54
2021/05/19 02:29:07;;;;;;;;;;;;;;;6.66;88.72;95665.25;3603199;39;19936;-54
2021/05/19 02:31:37;;;;;;;;;;;;;;;6.70;87.97;95675.03;3593393;39;19936;-55
2021/05/19 02:34:05;;;;;;;;;;;;;;;6.76;88.14;95666.22;3603227;39;19950;-55
2021/05/19 02:36:35;;;;;;;;;;;;;;;6.79;87.63;95674.66;3600547;39;19951;-54
2021/05/19 02:39:08;;;;;;;;;;;;;;;6.77;87.51;95662.56;3594777;39;20213;-54
2021/05/19 02:41:37;;;;;;;;;;;;;;;6.76;87.24;95660.97;3591150;39;19946;-56
2021/05/19 02:44:05;;;;;;;;;;;;;;;6.74;87.70;95664.88;3589656;39;19950;-54
2021/05/19 02:46:33;;;;;;;;;;;;;;;6.69;88.46;95675.25;3595823;39;20374;-53
2021/05/19 02:49:01;;;;;;;;;;;;;;;6.71;87.32;95679.22;3594837;39;20270;-53
2021/05/19 02:51:33;;;;;;;;;;;;;;;6.76;87.14;95679.34;3605326;39;19950;-54
2021/05/19 02:54:01;;;;;;;;;;;;;;;6.79;86.87;95674.66;3582542;39;19940;-54
2021/05/19 02:56:28;;;;;;;;;;;;;;;6.79;87.32;95690.38;3591396;39;19936;-53
2021/05/19 02:58:56;;;;;;;;;;;;;;;6.76;87.20;95681.94;3595033;39;19936;-53
2021/05/19 03:01:23;;;;;;;;;;;;;;;6.72;87.45;95682.66;3603150;39;19950;-53
2021/05/19 03:03:51;;;;;;;;;;;;;;;6.71;87.22;95676.63;3577248;39;20312;-56
2021/05/19 03:06:18;;;;;;;;;;;;;;;6.70;87.55;95680.28;3603656;39;19943;-54
2021/05/19 03:08:45;;;;;;;;;;;;;;;6.71;86.68;95686.31;3594668;39;19954;-54
2021/05/19 03:11:13;;;;;;;;;;;;;;;6.64;87.43;95675.97;3604562;39;20379;-54
2021/05/19 03:13:41;;;;;;;;;;;;;;;6.67;86.79;95690.44;3590822;39;20216;-54
2021/05/19 03:16:08;;;;;;;;;;;;;;;6.66;87.46;95689.66;3603554;39;19935;-54
2021/05/19 03:18:36;;;;;;;;;;;;;;;6.68;86.76;95687.59;3593383;39;19936;-55
2021/05/19 03:21:03;;;;;;;;;;;;;;;6.73;86.73;95685.03;3592721;39;19943;-54
2021/05/19 03:23:31;;;;;;;;;;;;;;;6.72;87.49;95683.44;3602865;39;19954;-54
2021/05/19 03:25:59;;;;;;;;;;;;;;;6.70;87.26;95685.53;3590256;39;19942;-54
2021/05/19 03:28:27;;;;;;;;;;;;;;;6.66;87.66;95692.28;3603144;39;19936;-54
2021/05/19 03:30:55;;;;;;;;;;;;;;;6.73;88.00;95695.53;3603876;39;19942;-54
2021/05/19 03:33:22;;;;;;;;;;;;;;;6.81;87.36;95704.06;3590127;39;20605;-54
2021/05/19 03:35:49;;;;;;;;;;;;;;;6.80;87.65;95702.47;3592824;39;19944;-53
2021/05/19 03:38:17;;;;;;;;;;;;;;;6.82;87.40;95700.41;3585955;39;20335;-53
2021/05/19 03:40:45;;;;;;;;;;;;;;;6.84;88.12;95703.56;3604153;39;20277;-54
2021/05/19 03:43:13;;;;;;;;;;;;;;;6.82;88.15;95708.25;3598503;39;19936;-54
2021/05/19 03:45:40;;;;;;;;;;;;;;;6.81;88.47;95699.59;3594255;39;20209;-54
2021/05/19 03:48:08;;;;;;;;;;;;;;;6.84;87.33;95703.56;3602214;39;19954;-54
2021/05/19 03:50:37;;;;;;;;;;;;;;;6.83;87.37;95705.41;3602987;39;20277;-54
2021/05/19 03:53:05;;;;;;;;;;;;;;;6.89;87.04;95707.06;3603182;39;19947;-53
2021/05/19 03:55:33;;;;;;;;;;;;;;;6.92;87.18;95708.44;3602798;39;19943;-54
2021/05/19 03:58:02;;;;;;;;;;;;;;;6.89;87.34;95708.91;3600297;39;19948;-54
2021/05/19 04:00:30;;;;;;;;;;;;;;;6.98;86.94;95715.34;3593096;39;19944;-54
2021/05/19 04:02:58;;;;;;;;;;;;;;;7.10;85.58;95722.34;3601261;39;20598;-53
2021/05/19 04:05:26;;;;;;;;;;;;;;;7.11;85.53;95727.38;3603035;39;19946;-53
2021/05/19 04:07:54;;;;;;;;;;;;;;;7.15;84.86;95719.81;3593539;39;19954;-54
2021/05/19 04:10:23;;;;;;;;;;;;;;;7.15;85.40;95717.19;3601684;39;19936;-54
2021/05/19 04:12:50;;;;;;;;;;;;;;;7.11;84.96;95721.31;3594815;39;19943;-55
2021/05/19 04:15:19;;;;;;;;;;;;;;;7.10;85.05;95717.91;3586699;39;19974;-54
2021/05/19 04:17:46;;;;;;;;;;;;;;;7.09;85.92;95716.31;3595897;39;19946;-55
2021/05/19 04:20:14;;;;;;;;;;;;;;;7.06;85.31;95724.66;3581295;39;19936;-55
2021/05/19 04:22:42;;;;;;;;;;;;;;;7.12;85.45;95728.16;3594354;39;19936;-55
2021/05/19 04:25:10;;;;;;;;;;;;;;;7.18;85.38;95729.84;3595541;39;19970;-55
2021/05/19 04:27:38;;;;;;;;;;;;;;;7.17;84.87;95733.47;3596790;39;19936;-55
2021/05/19 04:30:07;;;;;;;;;;;;;;;7.12;84.74;95736.81;3587675;39;20234;-55
2021/05/19 04:32:35;;;;;;;;;;;;;;;7.11;85.53;95737.84;3595274;39;19944;-55
2021/05/19 04:35:03;;;;;;;;;;;;;;;7.10;85.59;95740.69;3592081;39;19942;-54
2021/05/19 04:37:30;;;;;;;;;;;;;;;7.18;85.22;95738.47;3592990;39;20582;-54
2021/05/19 04:39:58;;;;;;;;;;;;;;;7.33;84.56;95740.53;3590016;39;19953;-55
2021/05/19 04:42:26;;;;;;;;;;;;;;;7.36;84.88;95732.19;3587796;39;19954;-55
2021/05/19 04:44:54;;;;;;;;;;;;;;;7.44;84.74;95741.50;3593532;39;19950;-54
2021/05/19 04:47:21;;;;;;;;;;;;;;;7.50;86.00;95740.56;3594797;39;19935;-55
2021/05/19 04:49:49;;;;;;;;;;;;;;;7.61;84.79;95738.88;3593195;39;19952;-55
2021/05/19 04:52:16;;;;;;;;;;;;;;;7.65;85.08;95744.41;3593211;39;19947;-55
2021/05/19 04:54:44;;;;;;;;;;;;;;;7.72;84.61;95742.44;3584117;39;19947;-54
2021/05/19 04:57:12;;;;;;;;;;;;;;;7.82;84.11;95739.13;3597394;39;19947;-53
2021/05/19 04:59:39;;;;;;;;;;;;;;;7.96;83.01;95740.38;3590152;39;19950;-54
2021/05/19 05:02:07;;;;;;;;;;;;;;;8.20;81.75;95748.03;3594425;39;19959;-56
2021/05/19 05:04:34;;;;;;;;;;;;;;;8.37;81.37;95741.94;3576875;39;20285;-55
2021/05/19 05:07:02;;;;;;;;;;;;;;;8.35;81.13;95736.94;3593468;39;19957;-55
2021/05/19 05:09:29;;;;;;;;;;;;;;;8.40;80.70;95738.81;3585334;39;19954;-54
2021/05/19 05:11:57;;;;;;;;;;;;;;;8.41;81.02;95743.81;3599237;39;20289;-54
2021/05/19 05:14:24;;;;;;;;;;;;;;;8.46;80.19;95748.34;3600258;39;19944;-56
2021/05/19 05:16:52;;;;;;;;;;;;;;;8.52;80.02;95739.50;3592312;39;20204;-53
2021/05/19 05:19:19;;;;;;;;;;;;;;;8.65;79.94;95740.16;3604095;39;19942;-54
2021/05/19 05:21:47;;;;;;;;;;;;;;;8.72;80.10;95743.38;3593172;39;20491;-54
2021/05/19 05:24:14;;;;;;;;;;;;;;;8.73;78.99;95745.78;3603649;39;20027;-54
2021/05/19 05:26:42;;;;;;;;;;;;;;;8.74;79.13;95746.56;3599731;39;19944;-54
2021/05/19 05:29:10;;;;;;;;;;;;;;;8.79;78.92;95749.25;3600944;39;20803;-54
2021/05/19 05:31:37;;;;;;;;;;;;;;;8.80;79.87;95748.19;3592171;39;19974;-54
2021/05/19 05:34:05;;;;;;;;;;;;;;;8.99;78.89;95750.47;3601976;39;19942;-54
2021/05/19 05:36:33;;;;;;;;;;;;;;;9.16;77.96;95750.34;3603728;39;19932;-54
2021/05/19 05:39:00;;;;;;;;;;;;;;;9.32;77.47;95754.72;3595560;39;20248;-54
2021/05/19 05:41:28;;;;;;;;;;;;;;;9.47;77.26;95755.88;3593507;39;20223;-54
2021/05/19 05:43:55;;;;;;;;;;;;;;;9.47;76.94;95763.78;3601426;39;19988;-54
2021/05/19 05:46:23;;;;;;;;;;;;;;;9.59;76.29;95760.97;3603500;39;20281;-54
2021/05/19 05:48:50;;;;;;;;;;;;;;;9.76;75.76;95748.44;3603806;39;19935;-55
2021/05/19 05:51:18;;;;;;;;;;;;;;;9.88;75.85;95758.00;3591630;39;19944;-55
2021/05/19 05:53:45;;;;;;;;;;;;;;;9.92;76.27;95762.50;3603713;39;19950;-54
2021/05/19 05:56:13;;;;;;;;;;;;;;;9.85;76.24;95761.91;3584255;39;19943;-54
2021/05/19 05:58:42;;;;;;;;;;;;;;;9.80;76.05;95772.44;3594536;39;20297;-54
2021/05/19 06:01:10;;;;;;;;;;;;;;;9.60;76.62;95771.22;3595710;39;19948;-54
2021/05/19 06:03:38;;;;;;;;;;;;;;;9.53;76.95;95770.66;3593709;39;19944;-54
2021/05/19 06:06:06;;;;;;;;;;;;;;;9.52;76.39;95774.34;3594900;39;19936;-56
2021/05/19 06:08:34;;;;;;;;;;;;;;;9.48;76.60;95779.31;3592306;39;20297;-55
2021/05/19 06:11:05;;;;;;;;;;;;;;;9.46;76.73;95768.25;3583738;39;19943;-55
2021/05/19 06:13:34;;;;;;;;;;;;;;;9.44;77.38;95769.53;3596048;39;19940;-55
2021/05/19 06:16:01;;;;;;;;;;;;;;;9.49;78.21;95765.09;3589074;39;19974;-55
2021/05/19 06:18:29;;;;;;;;;;;;;;;9.63;78.13;95765.47;3587901;39;19954;-54
2021/05/19 06:20:56;;;;;;;;;;;;;;;9.82;77.73;95760.59;3590683;39;20221;-55
2021/05/19 06:23:24;;;;;;;;;;;;;;;10.00;76.38;95758.59;3589959;39;19936;-54
2021/05/19 06:25:51;;;;;;;;;;;;;;;10.20;76.00;95762.34;3591715;39;19950;-55
2021/05/19 06:28:19;;;;;;;;;;;;;;;10.42;74.51;95763.00;3591244;39;19948;-55
2021/05/19 06:30:46;;;;;;;;;;;;;;;10.68;74.36;95762.31;3591509;39;19940;-54
2021/05/19 06:33:14;;;;;;;;;;;;;;;10.98;74.38;95756.31;3591390;39;20149;-55
2021/05/19 06:35:41;;;;;;;;;;;;;;;11.19;72.37;95756.31;3591973;39;19948;-54
2021/05/19 06:38:09;;;;;;;;;;;;;;;11.40;72.37;95751.84;3586344;39;19954;-55
2021/05/19 06:40:37;;;;;;;;;;;;;;;11.50;72.92;95753.69;3601442;39;19944;-55
2021/05/19 06:43:04;;;;;;;;;;;;;;;11.54;72.36;95755.53;3591681;39;19946;-55
2021/05/19 06:45:32;;;;;;;;;;;;;;;11.60;70.86;95755.53;3592260;39;19936;-54
2021/05/19 06:48:00;;;;;;;;;;;;;;;11.64;71.05;95754.72;3587332;39;19948;-55
2021/05/19 06:50:27;;;;;;;;;;;;;;;11.65;73.35;95756.31;3582819;39;20221;-54
2021/05/19 06:52:55;;;;;;;;;;;;;;;11.79;73.43;95755.75;3580573;39;19944;-54
2021/05/19 06:55:23;;;;;;;;;;;;;;;12.00;72.70;95749.41;3594706;39;19936;-55
2021/05/19 06:57:51;;;;;;;;;;;;;;;12.17;71.31;95747.53;3601764;39;20026;-55
2021/05/19 07:00:18;;;;;;;;;;;;;;;12.29;69.85;95750.66;3578743;39;19936;-55
2021/05/19 07:02:46;;;;;;;;;;;;;;;12.40;69.68;95740.81;3594566;39;19944;-54
2021/05/19 07:05:13;;;;;;;;;;;;;;;12.63;70.11;95738.56;3593623;39;20032;-55
2021/05/19 07:07:42;;;;;;;;;;;;;;;12.91;70.99;95729.94;3593830;39;20294;-55
2021/05/19 07:10:11;;;;;;;;;;;;;;;13.15;68.75;95726.59;3593046;39;19950;-55
2021/05/19 07:12:38;;;;;;;;;;;;;;;13.27;68.05;95728.09;3599255;39;19942;-55
2021/05/19 07:15:11;;;;;;;;;;;;;;;13.27;69.04;95718.31;3593002;39;20273;-57
2021/05/19 07:17:39;;;;;;;;;;;;;;;13.57;68.69;95713.84;3593671;39;19936;-55
2021/05/19 07:20:09;;;;;;;;;;;;;;;13.84;66.75;95718.63;3589651;39;20312;-56
2021/05/19 07:22:37;;;;;;;;;;;;;;;14.26;66.89;95718.16;3584122;39;19950;-56
2021/05/19 07:25:05;;;;;;;;;;;;;;;14.50;65.52;95707.50;3587739;39;19954;-55
2021/05/19 07:27:34;;;;;;;;;;;;;;;14.75;66.10;95703.75;3596773;39;19944;-54
2021/05/19 07:30:02;;;;;;;;;;;;;;;14.84;62.61;95705.75;3592063;39;19936;-55
2021/05/19 07:32:30;;;;;;;;;;;;;;;14.88;62.52;95699.59;3590539;39;19940;-55
2021/05/19 07:34:57;;;;;;;;;;;;;;;14.63;63.22;95697.25;3598337;39;19936;-58
2021/05/19 07:37:25;;;;;;;;;;;;;;;14.53;62.37;95703.50;3592922;39;20338;-55
2021/05/19 07:39:52;;;;;;;;;;;;;;;14.54;63.72;95708.50;3589275;39;19956;-55
2021/05/19 07:42:20;;;;;;;;;;;;;;;14.56;61.71;95705.59;3586003;39;20402;-55
2021/05/19 07:44:48;;;;;;;;;;;;;;;14.66;62.81;95700.13;3593025;39;20282;-55
2021/05/19 07:47:14;;;;;;;;;;;;;;;14.74;61.47;95710.13;3594989;39;19932;-55
2021/05/19 07:49:40;;;;;;;;;;;;;;;14.95;61.22;95706.38;3591916;39;19936;-55
2021/05/19 07:52:07;;;;;;;;;;;;;;;15.11;60.30;95704.28;3593641;39;20295;-55
2021/05/19 07:54:35;;;;;;;;;;;;;;;15.14;59.17;95706.38;3592702;39;20243;-55
2021/05/19 07:57:11;;;;;;;;;;;;;;;15.14;57.40;95699.19;3596904;39;19932;-55
2021/05/19 07:59:38;;;;;;;;;;;;;;;15.15;58.16;95703.41;3594139;39;19946;-55
2021/05/19 08:02:12;;;;;;;;;;;;;;;15.17;59.68;95698.59;3587887;39;19936;-56
2021/05/19 08:04:39;;;;;;;;;;;;;;;15.17;58.09;95697.81;3592562;39;19940;-55
2021/05/19 08:07:06;;;;;;;;;;;;;;;15.29;58.95;95695.50;3591447;39;19973;-56
2021/05/19 08:09:32;;;;;;;;;;;;;;;15.47;59.82;95701.84;3595038;39;20593;-55
2021/05/19 08:11:59;;;;;;;;;;;;;;;15.53;58.03;95695.34;3594247;39;19943;-56
2021/05/19 08:14:27;;;;;;;;;;;;;;;15.67;58.33;95694.59;3592943;39;19950;-55
2021/05/19 08:16:53;;;;;;;;;;;;;;;15.83;57.40;95692.44;3592119;39;20874;-56
2021/05/19 08:19:20;;;;;;;;;;;;;;;15.95;54.56;95682.13;3593727;39;20456;-55
2021/05/19 08:21:48;;;;;;;;;;;;;;;16.03;53.89;95679.88;3593984;39;19942;-56
2021/05/19 08:24:16;;;;;;;;;;;;;;;16.27;55.33;95691.09;3594697;39;19936;-55
2021/05/19 08:26:43;;;;;;;;;;;;;;;16.54;53.04;95684.16;3594975;39;19954;-55
2021/05/19 08:29:11;;;;;;;;;;;;;;;16.73;52.06;95681.34;3594466;39;19942;-56
2021/05/19 08:31:39;;;;;;;;;;;;;;;16.80;52.74;95675.56;3591146;39;19950;-55
2021/05/19 08:34:12;;;;;;;;;;;;;;;17.01;53.00;95675.13;3592155;39;20344;-56
2021/05/19 08:36:40;;;;;;;;;;;;;;;17.15;50.31;95675.88;3593913;39;19955;-54
2021/05/19 08:39:08;;;;;;;;;;;;;;;17.36;48.96;95672.69;3581597;39;19944;-56
2021/05/19 08:41:35;;;;;;;;;;;;;;;17.44;49.46;95682.63;3591890;39;19944;-54
2021/05/19 08:44:07;;;;;;;;;;;;;;;17.54;48.99;95681.56;3601074;39;19942;-55
2021/05/19 08:46:41;;;;;;;;;;;;;;;17.66;50.03;95679.13;3601917;39;19936;-54
2021/05/19 08:49:10;;;;;;;;;;;;;;;17.52;50.75;95679.22;3595538;39;19944;-54
2021/05/19 08:51:38;;;;;;;;;;;;;;;17.35;48.85;95679.13;3594315;39;19936;-55
2021/05/19 08:54:09;;;;;;;;;;;;;;;17.01;50.43;95678.59;3593473;39;19963;-55
2021/05/19 08:56:41;;;;;;;;;;;;;;;16.86;50.88;95670.94;3594495;39;20288;-55
2021/05/19 08:59:08;;;;;;;;;;;;;;;16.82;50.88;95673.38;3594989;39;19944;-55
2021/05/19 09:01:38;;;;;;;;;;;;;;;16.78;49.80;95667.13;3599630;39;20030;-55
2021/05/19 09:04:14;;;;;;;;;;;;;;;16.74;50.46;95668.78;3595821;39;19950;-55
2021/05/19 09:06:42;;;;;;;;;;;;;;;16.68;50.10;95672.66;3605514;39;20174;-55
2021/05/19 09:09:19;;;;;;;;;;;;;;;16.69;50.58;95668.91;3586857;39;19946;-54
2021/05/19 09:11:59;;;;;;;;;;;;;;;16.72;51.46;95669.09;3594555;39;20258;-55
2021/05/19 09:14:29;;;;;;;;;;;;;;;17.04;49.24;95664.66;3606004;39;19935;-55
2021/05/19 09:17:15;;;;;;;;;;;;;;;17.26;48.50;95655.06;3604859;39;19942;-54
2021/05/19 09:19:43;;;;;;;;;;;;;;;17.27;47.57;95669.97;3607651;39;19976;-55
2021/05/19 09:22:17;;;;;;;;;;;;;;;17.09;46.47;95671.75;3595946;39;19936;-55
2021/05/19 09:24:44;;;;;;;;;;;;;;;16.74;48.06;95671.47;3594212;39;19936;-55
2021/05/19 09:27:12;;;;;;;;;;;;;;;16.78;48.12;95671.63;3604016;39;19942;-56
2021/05/19 09:29:40;;;;;;;;;;;;;;;16.64;48.38;95666.38;3596205;39;19940;-56
2021/05/19 09:32:09;;;;;;;;;;;;;;;16.54;47.67;95672.69;3603569;39;20303;-56
2021/05/19 09:34:38;;;;;;;;;;;;;;;16.38;47.87;95674.91;3596970;39;19961;-56
2021/05/19 09:37:20;;;;;;;;;;;;;;;16.23;48.89;95668.81;3596632;39;20363;-56
2021/05/19 09:39:55;;;;;;;;;;;;;;;16.09;49.58;95668.81;3594660;39;19936;-56
2021/05/19 09:42:24;;;;;;;;;;;;;;;16.12;50.48;95670.09;3606126;39;19943;-53
2021/05/19 09:44:53;;;;;;;;;;;;;;;16.12;50.98;95660.22;3604636;39;19935;-55
2021/05/19 09:47:41;;;;;;;;;;;;;;;16.13;49.31;95655.72;3595854;39;19931;-57
2021/05/19 09:50:10;;;;;;;;;;;;;;;16.16;49.89;95652.47;3600806;39;19935;-55
2021/05/19 09:52:37;;;;;;;;;;;;;;;16.32;49.35;95660.09;3594476;39;19942;-56
2021/05/19 09:55:08;;;;;;;;;;;;;;;16.46;50.14;95658.22;3583788;39;19943;-54
2021/05/19 09:57:48;;;;;;;;;;;;;;;16.57;49.59;95662.22;3605349;39;19940;-54
2021/05/19 10:00:19;;;;;;;;;;;;;;;16.74;49.49;95666.91;3585307;39;19942;-56
2021/05/19 10:02:48;;;;;;;;;;;;;;;16.86;49.83;95665.59;3604007;39;20607;-55
2021/05/19 10:05:22;;;;;;;;;;;;;;;16.94;46.88;95658.75;3603748;39;19973;-55
2021/05/19 10:07:49;;;;;;;;;;;;;;;16.92;45.59;95654.50;3595731;39;19939;-55
2021/05/19 10:10:17;;;;;;;;;;;;;;;17.28;45.97;95657.44;3604298;39;19943;-55
2021/05/19 10:12:45;;;;;;;;;;;;;;;17.55;46.11;95650.34;3595763;39;19936;-55
2021/05/19 10:15:17;;;;;;;;;;;;;;;17.82;44.76;95644.81;3604280;39;19936;-55
2021/05/19 10:17:47;;;;;;;;;;;;;;;18.06;42.72;95640.22;3593195;39;20307;-55
2021/05/19 10:20:17;;;;;;;;;;;;;;;18.45;45.07;95641.22;3602364;39;19942;-55
2021/05/19 10:22:49;;;;;;;;;;;;;;;18.85;45.05;95634.94;3591061;39;19936;-55
2021/05/19 10:25:35;;;;;;;;;;;;;;;19.18;43.41;95645.13;3602959;39;19939;-54
2021/05/19 10:28:08;;;;;;;;;;;;;;;19.26;41.00;95641.66;3603657;39;20426;-55
2021/05/19 10:30:39;;;;;;;;;;;;;;;19.32;41.22;95643.06;3602345;39;19936;-56
2021/05/19 10:33:27;;;;;;;;;;;;;;;19.27;40.17;95637.88;3605832;39;20247;-55
2021/05/19 10:35:59;;;;;;;;;;;;;;;19.13;39.58;95635.41;3603221;39;19985;-56
2021/05/19 10:38:33;;;;;;;;;;;;;;;18.94;41.79;95641.09;3605142;39;20305;-56
2021/05/19 10:41:02;;;;;;;;;;;;;;;18.41;40.18;95643.72;3606017;39;19979;-54
2021/05/19 10:43:58;;;;;;;;;;;;;;;17.82;42.64;95642.16;3603577;39;19944;-54
2021/05/19 10:46:45;;;;;;;;;;;;;;;17.34;43.80;95642.88;3594174;39;19936;-55
2021/05/19 10:49:12;;;;;;;;;;;;;;;16.99;45.82;95648.00;3594968;39;19943;-55
2021/05/19 10:51:44;;;;;;;;;;;;;;;16.60;47.04;95658.97;3604807;39;20415;-55
2021/05/19 11:00:04;;;;;;;;;;;;;;;15.59;45.69;95645.53;3603060;39;19962;-54
2021/05/19 11:02:51;;;;;;;;;;;;;;;15.43;46.05;95652.22;3603965;39;19932;-55
2021/05/19 11:05:19;;;;;;;;;;;;;;;15.13;44.60;95659.63;3604228;39;19950;-56
2021/05/19 11:08:11;;;;;;;;;;;;;;;14.96;45.66;95654.84;3600085;39;20423;-55
2021/05/19 11:10:47;;;;;;;;;;;;;;;14.93;46.17;95652.78;3587913;39;19944;-57
2021/05/19 11:13:16;;;;;;;;;;;;;;;14.89;45.85;95655.22;3595112;39;20116;-54
2021/05/19 11:18:31;;;;;;;;;;;;;;;14.85;46.48;95660.31;3603684;39;19947;-55
2021/05/19 11:20:59;;;;;;;;;;;;;;;15.05;45.98;95648.59;3604156;39;19942;-55
2021/05/19 11:23:27;;;;;;;;;;;;;;;15.31;46.59;95644.72;3602100;39;19950;-55
2021/05/19 11:26:27;;;;;;;;;;;;;;;15.22;43.85;95645.38;3595308;39;20001;-55
2021/05/19 11:28:55;;;;;;;;;;;;;;;15.58;45.16;95646.63;3570561;39;20022;-55
2021/05/19 11:31:31;;;;;;;;;;;;;;;15.28;44.17;95643.44;3606135;39;19935;-54
2021/05/19 11:34:00;;;;;;;;;;;;;;;15.55;44.18;95635.78;3602367;39;19935;-55
2021/05/19 11:36:43;;;;;;;;;;;;;;;15.45;44.28;95634.91;3593464;39;19950;-54
2021/05/19 11:39:31;;;;;;;;;;;;;;;15.79;43.54;95638.28;3595218;39;19936;-54
2021/05/19 11:42:19;;;;;;;;;;;;;;;16.21;43.00;95628.38;3603581;39;20277;-55
2021/05/19 11:44:50;;;;;;;;;;;;;;;16.57;42.81;95643.59;3601605;39;19942;-55
2021/05/19 11:47:21;;;;;;;;;;;;;;;16.87;44.02;95643.97;3598820;39;19940;-55
2021/05/19 11:50:05;;;;;;;;;;;;;;;17.25;42.46;95642.06;3583744;39;19951;-56
2021/05/19 11:52:57;;;;;;;;;;;;;;;17.35;43.34;95639.13;3603148;39;20081;-57
2021/05/19 11:55:34;;;;;;;;;;;;;;;17.38;42.89;95635.84;3593416;39;20499;-56
2021/05/19 11:58:02;;;;;;;;;;;;;;;17.42;42.85;95631.47;3605373;39;19973;-56
2021/05/19 12:00:38;;;;;;;;;;;;;;;17.40;42.31;95635.53;3604597;39;20026;-56
2021/05/19 12:03:07;;;;;;;;;;;;;;;17.47;43.09;95639.34;3606917;39;19946;-56
2021/05/19 12:05:53;;;;;;;;;;;;;;;17.46;43.70;95629.78;3606967;39;19944;-56
2021/05/19 12:08:30;;;;;;;;;;;;;;;17.56;43.54;95630.59;3595191;39;19940;-58
2021/05/19 12:11:01;;;;;;;;;;;;;;;17.53;42.83;95626.66;3605238;39;19946;-56
2021/05/19 12:13:29;;;;;;;;;;;;;;;17.70;42.63;95622.50;3604166;39;19941;-56
2021/05/19 12:15:57;;;;;;;;;;;;;;;17.72;42.08;95634.44;3603866;39;19943;-56
2021/05/19 12:18:24;;;;;;;;;;;;;;;17.78;42.94;95619.88;3605124;39;20273;-56
2021/05/19 12:20:52;;;;;;;;;;;;;;;17.64;42.51;95629.84;3584737;39;19942;-56
2021/05/19 12:23:19;;;;;;;;;;;;;;;17.52;40.96;95625.88;3584838;39;19953;-56
2021/05/19 12:25:47;;;;;;;;;;;;;;;17.56;40.75;95626.06;3603615;39;20297;-56
2021/05/19 12:28:19;;;;;;;;;;;;;;;17.75;41.93;95623.16;3604402;39;19950;-56
2021/05/19 12:30:47;;;;;;;;;;;;;;;17.93;40.10;95609.84;3601819;39;19936;-57
2021/05/19 12:33:19;;;;;;;;;;;;;;;18.08;40.28;95614.78;3593623;39;19974;-55
2021/05/19 12:35:50;;;;;;;;;;;;;;;18.12;39.06;95605.06;3599617;39;19943;-55
2021/05/19 12:38:27;;;;;;;;;;;;;;;18.17;39.94;95608.66;3595887;39;19950;-56
2021/05/19 12:40:56;;;;;;;;;;;;;;;18.25;39.26;95597.22;3592082;39;20007;-56
2021/05/19 12:43:25;;;;;;;;;;;;;;;18.27;39.73;95595.03;3604643;39;19944;-54
2021/05/19 12:45:54;;;;;;;;;;;;;;;18.28;40.02;95602.72;3593499;39;19942;-54
2021/05/19 12:48:23;;;;;;;;;;;;;;;18.28;40.21;95596.56;3593126;39;19944;-54
2021/05/19 12:50:52;;;;;;;;;;;;;;;18.26;40.49;95594.22;3600501;39;19936;-56
2021/05/19 12:53:29;;;;;;;;;;;;;;;18.17;40.00;95596.13;3603379;39;19955;-55
2021/05/19 12:56:00;;;;;;;;;;;;;;;18.20;40.11;95595.50;3599452;39;19936;-55
2021/05/19 12:58:29;;;;;;;;;;;;;;;18.26;41.05;95593.47;3604035;39;20296;-56
2021/05/19 13:00:57;;;;;;;;;;;;;;;18.36;39.68;95597.69;3584552;39;19943;-54
2021/05/19 13:03:43;;;;;;;;;;;;;;;18.48;39.14;95589.06;3594131;39;19944;-54
2021/05/19 13:06:11;;;;;;;;;;;;;;;18.51;39.93;95589.22;3595257;39;19943;-54
2021/05/19 13:08:39;;;;;;;;;;;;;;;18.51;40.29;95585.78;3602364;39;19950;-54
2021/05/19 13:11:17;;;;;;;;;;;;;;;18.44;42.34;95584.34;3586645;39;19950;-54
2021/05/19 13:13:46;;;;;;;;;;;;;;;18.53;38.27;95581.69;3595156;39;20332;-54
2021/05/19 13:16:17;;;;;;;;;;;;;;;18.61;39.29;95577.44;3593538;39;20311;-54
2021/05/19 13:19:29;;;;;;;;;;;;;;;18.60;38.96;95583.88;3594347;39;19966;-55